sensor_id;sensor_type;location;lat;lon;timestamp;pressure;altitude;pressure_sealevel;temperature;humidity
68712;BME280;55690;51.566;19.198;2024-02-23T00:01:15;99486.00;;;8.78;100.00
68712;BME280;55690;51.566;19.198;2024-02-23T00:05:21;99472.73;;;8.75;100.00
68712;BME280;55690;51.566;19.198;2024-02-23T00:09:28;99485.48;;;8.84;100.00
68712;BME280;55690;51.566;19.198;2024-02-23T00:13:33;99480.06;;;8.84;100.00
68712;BME280;55690;51.566;19.198;2024-02-23T00:17:40;99484.62;;;8.84;100.00
68712;BME280;55690;51.566;19.198;2024-02-23T00:21:46;99472.53;;;8.88;100.00
68712;BME280;55690;51.566;19.198;2024-02-23T00:25:53;99477.09;;;8.87;100.00
68712;BME280;55690;51.566;19.198;2024-02-23T00:29:58;99471.95;;;8.84;100.00
68712;BME280;55690;51.566;19.198;2024-02-23T00:34:04;99475.84;;;8.91;100.00
68712;BME280;55690;51.566;19.198;2024-02-23T00:38:11;99452.08;;;8.74;100.00
68712;BME280;55690;51.566;19.198;2024-02-23T00:42:17;99463.88;;;8.94;100.00
68712;BME280;55690;51.566;19.198;2024-02-23T00:46:23;99472.53;;;8.88;100.00
68712;BME280;55690;51.566;19.198;2024-02-23T00:50:29;99464.09;;;8.81;100.00
68712;BME280;55690;51.566;19.198;2024-02-23T00:54:35;99460.39;;;8.82;100.00
68712;BME280;55690;51.566;19.198;2024-02-23T00:58:41;99459.27;;;8.85;100.00
68712;BME280;55690;51.566;19.198;2024-02-23T01:02:48;99459.86;;;8.67;100.00
68712;BME280;55690;51.566;19.198;2024-02-23T01:06:54;99464.84;;;8.62;100.00
68712;BME280;55690;51.566;19.198;2024-02-23T01:11:00;99462.17;;;8.72;100.00
68712;BME280;55690;51.566;19.198;2024-02-23T01:15:07;99451.74;;;8.67;100.00
68712;BME280;55690;51.566;19.198;2024-02-23T01:19:12;99454.29;;;8.59;100.00
68712;BME280;55690;51.566;19.198;2024-02-23T01:23:18;99450.39;;;8.52;100.00
68712;BME280;55690;51.566;19.198;2024-02-23T01:27:25;99457.85;;;8.60;100.00
68712;BME280;55690;51.566;19.198;2024-02-23T01:31:31;99460.68;;;8.58;100.00
68712;BME280;55690;51.566;19.198;2024-02-23T01:35:37;99460.03;;;8.66;100.00
68712;BME280;55690;51.566;19.198;2024-02-23T01:39:43;99467.55;;;8.62;100.00
68712;BME280;55690;51.566;19.198;2024-02-23T01:43:49;99465.63;;;8.53;100.00
68712;BME280;55690;51.566;19.198;2024-02-23T01:47:55;99464.02;;;8.72;100.00
68712;BME280;55690;51.566;19.198;2024-02-23T01:52:02;99483.95;;;8.71;100.00
68712;BME280;55690;51.566;19.198;2024-02-23T01:56:08;99483.92;;;8.61;100.00
68712;BME280;55690;51.566;19.198;2024-02-23T02:00:16;99481.73;;;8.55;100.00
68712;BME280;55690;51.566;19.198;2024-02-23T02:04:20;99471.55;;;8.68;100.00
68712;BME280;55690;51.566;19.198;2024-02-23T02:08:26;99483.36;;;8.67;100.00
68712;BME280;55690;51.566;19.198;2024-02-23T02:12:33;99477.05;;;8.57;100.00
68712;BME280;55690;51.566;19.198;2024-02-23T02:16:39;99478.24;;;8.64;100.00
68712;BME280;55690;51.566;19.198;2024-02-23T02:20:51;99490.19;;;8.61;100.00
68712;BME280;55690;51.566;19.198;2024-02-23T02:24:54;99478.38;;;8.62;100.00
68712;BME280;55690;51.566;19.198;2024-02-23T02:28:57;99471.90;;;8.54;100.00
68712;BME280;55690;51.566;19.198;2024-02-23T02:33:04;99476.52;;;8.63;100.00
68712;BME280;55690;51.566;19.198;2024-02-23T02:37:09;99479.62;;;8.58;100.00
68712;BME280;55690;51.566;19.198;2024-02-23T02:41:17;99483.92;;;8.61;100.00
68712;BME280;55690;51.566;19.198;2024-02-23T02:45:22;99485.42;;;8.54;100.00
68712;BME280;55690;51.566;19.198;2024-02-23T02:49:28;99490.77;;;8.44;100.00
68712;BME280;55690;51.566;19.198;2024-02-23T02:53:34;99489.59;;;8.58;100.00
68712;BME280;55690;51.566;19.198;2024-02-23T02:57:40;99489.12;;;8.53;100.00
68712;BME280;55690;51.566;19.198;2024-02-23T03:01:47;99486.79;;;8.69;100.00
68712;BME280;55690;51.566;19.198;2024-02-23T03:05:53;99490.49;;;8.68;100.00
68712;BME280;55690;51.566;19.198;2024-02-23T03:09:59;99496.20;;;8.65;100.00
68712;BME280;55690;51.566;19.198;2024-02-23T03:14:05;99502.52;;;8.54;100.00
68712;BME280;55690;51.566;19.198;2024-02-23T03:18:11;99510.51;;;8.56;100.00
68712;BME280;55690;51.566;19.198;2024-02-23T03:22:17;99519.53;;;8.45;100.00
68712;BME280;55690;51.566;19.198;2024-02-23T03:26:24;99526.52;;;8.48;100.00
68712;BME280;55690;51.566;19.198;2024-02-23T03:30:30;99523.56;;;8.51;100.00
68712;BME280;55690;51.566;19.198;2024-02-23T03:34:36;99521.46;;;8.54;100.00
68712;BME280;55690;51.566;19.198;2024-02-23T03:38:42;99529.88;;;8.40;100.00
68712;BME280;55690;51.566;19.198;2024-02-23T03:42:48;99530.61;;;8.31;100.00
68712;BME280;55690;51.566;19.198;2024-02-23T03:46:54;99529.88;;;8.40;100.00
68712;BME280;55690;51.566;19.198;2024-02-23T03:51:01;99527.91;;;8.31;100.00
68712;BME280;55690;51.566;19.198;2024-02-23T03:55:07;99524.22;;;8.32;100.00
68712;BME280;55690;51.566;19.198;2024-02-23T03:59:13;99528.16;;;8.39;100.00
68712;BME280;55690;51.566;19.198;2024-02-23T04:03:19;99539.64;;;8.20;100.00
68712;BME280;55690;51.566;19.198;2024-02-23T04:07:25;99537.20;;;8.17;100.00
68712;BME280;55690;51.566;19.198;2024-02-23T04:11:32;99544.77;;;8.23;100.00
68712;BME280;55690;51.566;19.198;2024-02-23T04:15:38;99549.75;;;8.07;100.00
68712;BME280;55690;51.566;19.198;2024-02-23T04:19:44;99559.08;;;8.14;100.00
68712;BME280;55690;51.566;19.198;2024-02-23T04:23:50;99565.70;;;8.21;100.00
68712;BME280;55690;51.566;19.198;2024-02-23T04:27:56;99567.01;;;8.27;100.00
68712;BME280;55690;51.566;19.198;2024-02-23T04:32:03;99576.30;;;8.13;100.00
68712;BME280;55690;51.566;19.198;2024-02-23T04:36:09;99584.95;;;8.28;100.00
68712;BME280;55690;51.566;19.198;2024-02-23T04:40:15;99587.66;;;8.28;100.00
68712;BME280;55690;51.566;19.198;2024-02-23T04:44:22;99581.80;;;8.23;100.00
68712;BME280;55690;51.566;19.198;2024-02-23T04:48:27;99601.97;;;8.19;100.00
68712;BME280;55690;51.566;19.198;2024-02-23T04:52:33;99590.79;;;8.12;100.00
68712;BME280;55690;51.566;19.198;2024-02-23T04:56:39;99599.64;;;8.14;100.00
68712;BME280;55690;51.566;19.198;2024-02-23T05:00:46;99594.23;;;8.14;100.00
68712;BME280;55690;51.566;19.198;2024-02-23T05:04:52;99611.94;;;8.07;100.00
68712;BME280;55690;51.566;19.198;2024-02-23T05:08:58;99605.05;;;8.14;100.00
68712;BME280;55690;51.566;19.198;2024-02-23T05:13:04;99607.99;;;8.22;100.00
68712;BME280;55690;51.566;19.198;2024-02-23T05:17:11;99618.09;;;8.09;100.00
68712;BME280;55690;51.566;19.198;2024-02-23T05:21:16;99624.10;;;8.13;100.00
68712;BME280;55690;51.566;19.198;2024-02-23T05:25:23;99621.35;;;8.24;100.00
68712;BME280;55690;51.566;19.198;2024-02-23T05:29:29;99636.89;;;8.11;100.00
68712;BME280;55690;51.566;19.198;2024-02-23T05:33:35;99645.85;;;8.22;100.00
68712;BME280;55690;51.566;19.198;2024-02-23T05:37:41;99656.91;;;8.19;100.00
68712;BME280;55690;51.566;19.198;2024-02-23T05:41:47;99660.35;;;8.21;100.00
68712;BME280;55690;51.566;19.198;2024-02-23T05:45:54;99668.23;;;8.13;100.00
68712;BME280;55690;51.566;19.198;2024-02-23T05:50:02;99674.73;;;8.22;100.00
68712;BME280;55690;51.566;19.198;2024-02-23T05:54:08;99686.41;;;8.33;100.00
68712;BME280;55690;51.566;19.198;2024-02-23T05:58:13;99695.97;;;8.26;100.00
68712;BME280;55690;51.566;19.198;2024-02-23T06:02:19;99711.45;;;8.24;100.00
68712;BME280;55690;51.566;19.198;2024-02-23T06:06:25;99706.21;;;8.23;100.00
68712;BME280;55690;51.566;19.198;2024-02-23T06:10:31;99722.27;;;8.24;100.00
68712;BME280;55690;51.566;19.198;2024-02-23T06:14:38;99729.77;;;8.32;100.00
68712;BME280;55690;51.566;19.198;2024-02-23T06:18:44;99733.59;;;8.29;100.00
68712;BME280;55690;51.566;19.198;2024-02-23T06:22:50;99734.23;;;8.33;100.00
68712;BME280;55690;51.566;19.198;2024-02-23T06:26:56;99737.92;;;8.21;100.00
68712;BME280;55690;51.566;19.198;2024-02-23T06:31:05;99745.04;;;8.11;100.00
68712;BME280;55690;51.566;19.198;2024-02-23T06:35:09;99738.38;;;8.26;100.00
68712;BME280;55690;51.566;19.198;2024-02-23T06:39:15;99749.82;;;8.29;100.00
68712;BME280;55690;51.566;19.198;2024-02-23T06:43:21;99761.98;;;8.24;100.00
68712;BME280;55690;51.566;19.198;2024-02-23T06:47:27;99763.46;;;8.28;100.00
68712;BME280;55690;51.566;19.198;2024-02-23T06:51:33;99774.45;;;8.38;100.00
68712;BME280;55690;51.566;19.198;2024-02-23T06:55:39;99788.70;;;8.40;100.00
68712;BME280;55690;51.566;19.198;2024-02-23T06:59:45;99799.77;;;8.37;100.00
68712;BME280;55690;51.566;19.198;2024-02-23T07:03:52;99792.37;;;8.16;100.00
68712;BME280;55690;51.566;19.198;2024-02-23T07:07:58;99786.20;;;8.25;100.00
68712;BME280;55690;51.566;19.198;2024-02-23T07:12:05;99803.41;;;8.24;100.00
68712;BME280;55690;51.566;19.198;2024-02-23T07:16:11;99812.02;;;8.29;100.00
68712;BME280;55690;51.566;19.198;2024-02-23T07:20:17;99805.30;;;8.35;100.00
68712;BME280;55690;51.566;19.198;2024-02-23T07:24:23;99813.30;;;8.48;100.00
68712;BME280;55690;51.566;19.198;2024-02-23T07:28:29;99827.58;;;8.50;100.00
68712;BME280;55690;51.566;19.198;2024-02-23T07:32:35;99830.52;;;8.47;100.00
68712;BME280;55690;51.566;19.198;2024-02-23T07:36:42;99835.07;;;8.46;100.00
68712;BME280;55690;51.566;19.198;2024-02-23T07:40:47;99831.51;;;8.46;100.00
68712;BME280;55690;51.566;19.198;2024-02-23T07:44:53;99841.48;;;8.56;100.00
68712;BME280;55690;51.566;19.198;2024-02-23T07:49:00;99849.15;;;8.27;100.00
68712;BME280;55690;51.566;19.198;2024-02-23T07:53:06;99846.16;;;8.65;100.00
68712;BME280;55690;51.566;19.198;2024-02-23T07:57:12;99854.13;;;8.45;100.00
68712;BME280;55690;51.566;19.198;2024-02-23T08:01:18;99841.84;;;8.52;100.00
68712;BME280;55690;51.566;19.198;2024-02-23T08:05:24;99855.87;;;8.57;100.00
68712;BME280;55690;51.566;19.198;2024-02-23T08:09:30;99873.81;;;8.69;100.00
68712;BME280;55690;51.566;19.198;2024-02-23T08:13:37;99869.13;;;8.71;100.00
68712;BME280;55690;51.566;19.198;2024-02-23T08:17:43;99878.00;;;8.84;100.00
68712;BME280;55690;51.566;19.198;2024-02-23T08:21:49;99870.99;;;9.04;100.00
68712;BME280;55690;51.566;19.198;2024-02-23T08:25:55;99870.99;;;8.93;100.00
68712;BME280;55690;51.566;19.198;2024-02-23T08:30:02;99879.73;;;9.08;100.00
68712;BME280;55690;51.566;19.198;2024-02-23T08:34:07;99874.77;;;9.13;100.00
68712;BME280;55690;51.566;19.198;2024-02-23T08:38:14;99889.05;;;9.15;100.00
68712;BME280;55690;51.566;19.198;2024-02-23T08:42:20;99900.00;;;9.13;100.00
68712;BME280;55690;51.566;19.198;2024-02-23T08:46:26;99904.84;;;8.98;100.00
68712;BME280;55690;51.566;19.198;2024-02-23T08:50:32;99898.03;;;9.15;100.00
68712;BME280;55690;51.566;19.198;2024-02-23T08:54:38;99904.30;;;9.27;100.00
68712;BME280;55690;51.566;19.198;2024-02-23T08:58:45;99903.20;;;9.18;100.00
68712;BME280;55690;51.566;19.198;2024-02-23T09:02:51;99914.27;;;9.26;100.00
68712;BME280;55690;51.566;19.198;2024-02-23T09:06:57;99910.70;;;9.37;100.00
68712;BME280;55690;51.566;19.198;2024-02-23T09:11:03;99906.52;;;9.33;100.00
68712;BME280;55690;51.566;19.198;2024-02-23T09:15:10;99916.98;;;9.38;100.00
68712;BME280;55690;51.566;19.198;2024-02-23T09:19:16;99914.52;;;9.34;100.00
68712;BME280;55690;51.566;19.198;2024-02-23T09:23:22;99924.86;;;9.29;100.00
68712;BME280;55690;51.566;19.198;2024-02-23T09:27:28;99931.13;;;9.30;100.00
68712;BME280;55690;51.566;19.198;2024-02-23T09:31:34;99928.42;;;9.41;100.00
68712;BME280;55690;51.566;19.198;2024-02-23T09:35:40;99938.52;;;9.50;100.00
68712;BME280;55690;51.566;19.198;2024-02-23T09:39:46;99946.28;;;9.44;100.00
68712;BME280;55690;51.566;19.198;2024-02-23T09:43:58;99957.24;;;9.42;100.00
68712;BME280;55690;51.566;19.198;2024-02-23T09:48:00;99960.32;;;9.38;100.00
68712;BME280;55690;51.566;19.198;2024-02-23T09:52:07;99964.88;;;9.37;100.00
68712;BME280;55690;51.566;19.198;2024-02-23T09:56:11;99971.72;;;9.63;100.00
68712;BME280;55690;51.566;19.198;2024-02-23T10:00:18;99973.93;;;9.70;100.00
68712;BME280;55690;51.566;19.198;2024-02-23T10:04:24;99984.80;;;9.58;100.00
68712;BME280;55690;51.566;19.198;2024-02-23T10:08:30;99990.45;;;9.66;100.00
68712;BME280;55690;51.566;19.198;2024-02-23T10:12:36;99989.58;;;9.77;100.00
68712;BME280;55690;51.566;19.198;2024-02-23T10:16:42;99993.98;;;9.89;100.00
68712;BME280;55690;51.566;19.198;2024-02-23T10:20:48;99991.48;;;9.97;100.00
68712;BME280;55690;51.566;19.198;2024-02-23T10:25:01;99987.19;;;9.95;100.00
68712;BME280;55690;51.566;19.198;2024-02-23T10:29:06;99994.92;;;9.99;100.00
68712;BME280;55690;51.566;19.198;2024-02-23T10:33:14;100008.96;;;10.05;100.00
68712;BME280;55690;51.566;19.198;2024-02-23T10:37:19;100006.63;;;10.00;100.00
68712;BME280;55690;51.566;19.198;2024-02-23T10:41:26;100020.77;;;10.15;100.00
68712;BME280;55690;51.566;19.198;2024-02-23T10:45:31;100024.61;;;10.23;100.00
68712;BME280;55690;51.566;19.198;2024-02-23T10:49:38;100025.43;;;10.35;100.00
68712;BME280;55690;51.566;19.198;2024-02-23T10:53:44;100031.18;;;10.42;100.00
68712;BME280;55690;51.566;19.198;2024-02-23T10:57:51;100035.17;;;10.38;100.00
68712;BME280;55690;51.566;19.198;2024-02-23T11:01:57;100036.68;;;10.30;100.00
68712;BME280;55690;51.566;19.198;2024-02-23T11:06:05;100047.34;;;10.43;100.00
68712;BME280;55690;51.566;19.198;2024-02-23T11:10:08;100043.11;;;10.50;100.00
68712;BME280;55690;51.566;19.198;2024-02-23T11:14:14;100055.29;;;10.35;100.00
68712;BME280;55690;51.566;19.198;2024-02-23T11:18:27;100067.28;;;10.53;100.00
68712;BME280;55690;51.566;19.198;2024-02-23T11:22:32;100062.08;;;10.61;100.00
68712;BME280;55690;51.566;19.198;2024-02-23T11:26:37;100058.79;;;10.79;100.00
68712;BME280;55690;51.566;19.198;2024-02-23T11:30:44;100070.82;;;10.65;100.00
68712;BME280;55690;51.566;19.198;2024-02-23T11:34:55;100072.50;;;10.77;100.00
68712;BME280;55690;51.566;19.198;2024-02-23T11:39:01;100076.99;;;10.67;100.00
68712;BME280;55690;51.566;19.198;2024-02-23T11:43:03;100065.48;;;10.75;100.00
68712;BME280;55690;51.566;19.198;2024-02-23T11:47:06;100070.64;;;10.78;100.00
68712;BME280;55690;51.566;19.198;2024-02-23T11:51:10;100057.38;;;10.84;100.00
68712;BME280;55690;51.566;19.198;2024-02-23T11:55:19;100073.35;;;10.98;100.00
68712;BME280;55690;51.566;19.198;2024-02-23T11:59:25;100069.32;;;11.14;100.00
68712;BME280;55690;51.566;19.198;2024-02-23T12:03:31;100079.39;;;11.23;100.00
68712;BME280;55690;51.566;19.198;2024-02-23T12:07:35;100079.92;;;11.17;100.00
68712;BME280;55690;51.566;19.198;2024-02-23T12:11:41;100077.97;;;11.28;100.00
68712;BME280;55690;51.566;19.198;2024-02-23T12:15:53;100080.74;;;11.38;100.00
68712;BME280;55690;51.566;19.198;2024-02-23T12:20:01;100081.61;;;11.39;100.00
68712;BME280;55690;51.566;19.198;2024-02-23T12:24:07;100082.10;;;11.23;100.00
68712;BME280;55690;51.566;19.198;2024-02-23T12:28:09;100095.75;;;11.12;100.00
68712;BME280;55690;51.566;19.198;2024-02-23T12:32:11;100094.11;;;11.20;100.00
68712;BME280;55690;51.566;19.198;2024-02-23T12:36:18;100106.57;;;11.23;100.00
68712;BME280;55690;51.566;19.198;2024-02-23T12:40:24;100096.02;;;11.09;100.00
68712;BME280;55690;51.566;19.198;2024-02-23T12:44:30;100099.47;;;11.11;100.00
68712;BME280;55690;51.566;19.198;2024-02-23T12:48:36;100093.15;;;11.31;100.00
68712;BME280;55690;51.566;19.198;2024-02-23T12:52:42;100106.34;;;11.36;100.00
68712;BME280;55690;51.566;19.198;2024-02-23T12:56:48;100100.31;;;11.32;100.00
68712;BME280;55690;51.566;19.198;2024-02-23T13:00:55;100103.98;;;11.21;100.00
68712;BME280;55690;51.566;19.198;2024-02-23T13:05:01;100098.68;;;11.20;100.00
68712;BME280;55690;51.566;19.198;2024-02-23T13:09:07;100105.84;;;11.21;100.00
68712;BME280;55690;51.566;19.198;2024-02-23T13:13:13;100118.60;;;11.30;100.00
68712;BME280;55690;51.566;19.198;2024-02-23T13:17:19;100129.34;;;11.31;100.00
68712;BME280;55690;51.566;19.198;2024-02-23T13:21:25;100132.45;;;11.48;100.00
68712;BME280;55690;51.566;19.198;2024-02-23T13:25:32;100140.95;;;11.33;100.00
68712;BME280;55690;51.566;19.198;2024-02-23T13:29:38;100136.77;;;11.50;100.00
68712;BME280;55690;51.566;19.198;2024-02-23T13:33:44;100135.17;;;11.27;100.00
68712;BME280;55690;51.566;19.198;2024-02-23T13:37:50;100145.85;;;11.40;100.00
68712;BME280;55690;51.566;19.198;2024-02-23T13:41:56;100147.24;;;11.34;100.00
68712;BME280;55690;51.566;19.198;2024-02-23T13:46:04;100143.66;;;11.33;100.00
68712;BME280;55690;51.566;19.198;2024-02-23T13:50:09;100149.91;;;11.45;100.00
68712;BME280;55690;51.566;19.198;2024-02-23T13:54:15;100145.19;;;11.47;100.00
68712;BME280;55690;51.566;19.198;2024-02-23T13:58:21;100142.40;;;11.38;100.00
68712;BME280;55690;51.566;19.198;2024-02-23T14:02:27;100146.98;;;11.37;100.00
68712;BME280;55690;51.566;19.198;2024-02-23T14:06:33;100144.66;;;11.32;100.00
68712;BME280;55690;51.566;19.198;2024-02-23T14:10:39;100158.73;;;11.17;100.00
68712;BME280;55690;51.566;19.198;2024-02-23T14:14:46;100158.95;;;11.25;100.00
68712;BME280;55690;51.566;19.198;2024-02-23T14:18:52;100166.28;;;11.34;100.00
68712;BME280;55690;51.566;19.198;2024-02-23T14:22:58;100182.12;;;11.29;100.00
68712;BME280;55690;51.566;19.198;2024-02-23T14:27:04;100177.32;;;11.00;100.00
68712;BME280;55690;51.566;19.198;2024-02-23T14:31:11;100190.20;;;10.87;100.00
68712;BME280;55690;51.566;19.198;2024-02-23T14:35:16;100194.23;;;10.72;100.00
68712;BME280;55690;51.566;19.198;2024-02-23T14:39:23;100186.97;;;10.61;100.00
68712;BME280;55690;51.566;19.198;2024-02-23T14:43:29;100189.55;;;10.63;100.00
68712;BME280;55690;51.566;19.198;2024-02-23T14:47:35;100191.18;;;10.54;100.00
68712;BME280;55690;51.566;19.198;2024-02-23T14:51:41;100204.64;;;10.45;100.00
68712;BME280;55690;51.566;19.198;2024-02-23T14:55:47;100205.01;;;10.40;100.00
68712;BME280;55690;51.566;19.198;2024-02-23T14:59:54;100202.83;;;10.23;100.00
68712;BME280;55690;51.566;19.198;2024-02-23T15:04:00;100216.97;;;10.04;100.00
68712;BME280;55690;51.566;19.198;2024-02-23T15:08:07;100209.73;;;9.93;100.00
68712;BME280;55690;51.566;19.198;2024-02-23T15:12:12;100214.16;;;9.94;100.00
68712;BME280;55690;51.566;19.198;2024-02-23T15:16:18;100218.19;;;10.00;100.00
68712;BME280;55690;51.566;19.198;2024-02-23T15:20:24;100224.02;;;9.95;100.00
68712;BME280;55690;51.566;19.198;2024-02-23T15:24:31;100228.18;;;9.99;100.00
68712;BME280;55690;51.566;19.198;2024-02-23T15:28:37;100241.74;;;9.99;100.00
68712;BME280;55690;51.566;19.198;2024-02-23T15:32:43;100238.69;;;9.93;100.00
68712;BME280;55690;51.566;19.198;2024-02-23T15:36:49;100231.99;;;9.75;100.00
68712;BME280;55690;51.566;19.198;2024-02-23T15:40:55;100231.72;;;9.66;100.00
68712;BME280;55690;51.566;19.198;2024-02-23T15:45:03;100246.11;;;9.56;100.00
68712;BME280;55690;51.566;19.198;2024-02-23T15:49:08;100246.70;;;9.37;100.00
68712;BME280;55690;51.566;19.198;2024-02-23T15:53:14;100245.83;;;9.37;100.00
68712;BME280;55690;51.566;19.198;2024-02-23T15:57:20;100250.30;;;9.49;100.00
68712;BME280;55690;51.566;19.198;2024-02-23T16:01:26;100263.35;;;9.55;100.00
68712;BME280;55690;51.566;19.198;2024-02-23T16:05:32;100268.42;;;9.59;100.00
68712;BME280;55690;51.566;19.198;2024-02-23T16:09:38;100276.79;;;9.56;100.00
68712;BME280;55690;51.566;19.198;2024-02-23T16:13:45;100271.37;;;9.56;100.00
68712;BME280;55690;51.566;19.198;2024-02-23T16:17:51;100278.63;;;9.56;100.00
68712;BME280;55690;51.566;19.198;2024-02-23T16:21:57;100288.95;;;9.40;100.00
68712;BME280;55690;51.566;19.198;2024-02-23T16:26:03;100295.23;;;9.40;100.00
68712;BME280;55690;51.566;19.198;2024-02-23T16:30:10;100282.83;;;9.49;100.00
68712;BME280;55690;51.566;19.198;2024-02-23T16:34:16;100286.76;;;9.45;100.00
68712;BME280;55690;51.566;19.198;2024-02-23T16:38:25;100303.76;;;9.47;100.00
68712;BME280;55690;51.566;19.198;2024-02-23T16:42:28;100297.07;;;9.40;100.00
68712;BME280;55690;51.566;19.198;2024-02-23T16:46:34;100301.28;;;9.44;100.00
68712;BME280;55690;51.566;19.198;2024-02-23T16:50:40;100305.84;;;9.43;100.00
68712;BME280;55690;51.566;19.198;2024-02-23T16:54:46;100312.75;;;9.47;100.00
68712;BME280;55690;51.566;19.198;2024-02-23T16:58:53;100320.13;;;9.45;100.00
68712;BME280;55690;51.566;19.198;2024-02-23T17:02:59;100314.61;;;9.47;100.00
68712;BME280;55690;51.566;19.198;2024-02-23T17:07:05;100326.71;;;9.30;100.00
68712;BME280;55690;51.566;19.198;2024-02-23T17:11:11;100323.77;;;9.33;100.00
68712;BME280;55690;51.566;19.198;2024-02-23T17:15:17;100326.93;;;9.27;100.00
68712;BME280;55690;51.566;19.198;2024-02-23T17:19:23;100326.93;;;9.27;100.00
68712;BME280;55690;51.566;19.198;2024-02-23T17:23:30;100328.14;;;9.23;100.00
68712;BME280;55690;51.566;19.198;2024-02-23T17:27:36;100330.10;;;9.21;100.00
68712;BME280;55690;51.566;19.198;2024-02-23T17:31:42;100336.27;;;9.23;100.00
68712;BME280;55690;51.566;19.198;2024-02-23T17:35:49;100335.29;;;9.24;100.00
68712;BME280;55690;51.566;19.198;2024-02-23T17:39:55;100344.29;;;9.24;100.00
68712;BME280;55690;51.566;19.198;2024-02-23T17:44:00;100338.87;;;9.24;100.00
68712;BME280;55690;51.566;19.198;2024-02-23T17:48:07;100335.76;;;9.18;100.00
68712;BME280;55690;51.566;19.198;2024-02-23T17:52:14;100330.67;;;9.13;100.00
68712;BME280;55690;51.566;19.198;2024-02-23T17:56:19;100335.76;;;9.18;100.00
68712;BME280;55690;51.566;19.198;2024-02-23T18:00:25;100331.60;;;9.25;100.00
68712;BME280;55690;51.566;19.198;2024-02-23T18:04:31;100336.62;;;9.18;100.00
68712;BME280;55690;51.566;19.198;2024-02-23T18:08:38;100321.86;;;9.22;100.00
68712;BME280;55690;51.566;19.198;2024-02-23T18:12:44;100329.42;;;9.30;100.00
68712;BME280;55690;51.566;19.198;2024-02-23T18:16:50;100340.48;;;9.27;100.00
68712;BME280;55690;51.566;19.198;2024-02-23T18:20:56;100337.66;;;9.28;100.00
68712;BME280;55690;51.566;19.198;2024-02-23T18:25:02;100336.38;;;9.21;100.00
68712;BME280;55690;51.566;19.198;2024-02-23T18:29:09;100335.63;;;9.19;100.00
68712;BME280;55690;51.566;19.198;2024-02-23T18:33:15;100340.41;;;9.16;100.00
68712;BME280;55690;51.566;19.198;2024-02-23T18:37:21;100333.38;;;9.13;100.00
68712;BME280;55690;51.566;19.198;2024-02-23T18:41:27;100335.87;;;9.16;100.00
68712;BME280;55690;51.566;19.198;2024-02-23T18:45:33;100335.63;;;9.19;100.00
68712;BME280;55690;51.566;19.198;2024-02-23T18:49:39;100330.98;;;9.21;100.00
68712;BME280;55690;51.566;19.198;2024-02-23T18:53:45;100347.23;;;9.21;100.00
68712;BME280;55690;51.566;19.198;2024-02-23T18:57:52;100354.71;;;9.18;100.00
68712;BME280;55690;51.566;19.198;2024-02-23T19:01:58;100356.29;;;9.09;100.00
68712;BME280;55690;51.566;19.198;2024-02-23T19:06:05;100359.86;;;9.10;100.00
68712;BME280;55690;51.566;19.198;2024-02-23T19:10:10;100349.73;;;9.12;100.00
68712;BME280;55690;51.566;19.198;2024-02-23T19:14:16;100332.17;;;9.17;100.00
68712;BME280;55690;51.566;19.198;2024-02-23T19:18:23;100337.59;;;9.17;100.00
68712;BME280;55690;51.566;19.198;2024-02-23T19:22:29;100338.45;;;9.18;100.00
68712;BME280;55690;51.566;19.198;2024-02-23T19:26:35;100340.41;;;9.16;100.00
68712;BME280;55690;51.566;19.198;2024-02-23T19:30:41;100344.52;;;9.21;100.00
68712;BME280;55690;51.566;19.198;2024-02-23T19:34:47;100333.38;;;9.13;100.00
68712;BME280;55690;51.566;19.198;2024-02-23T19:38:54;100332.63;;;9.11;100.00
68712;BME280;55690;51.566;19.198;2024-02-23T19:43:00;100342.79;;;9.20;100.00
68712;BME280;55690;51.566;19.198;2024-02-23T19:47:07;100340.15;;;9.08;100.00
68712;BME280;55690;51.566;19.198;2024-02-23T19:51:12;100331.53;;;9.14;100.00
68712;BME280;55690;51.566;19.198;2024-02-23T19:55:18;100324.76;;;9.08;100.00
68712;BME280;55690;51.566;19.198;2024-02-23T19:59:24;100331.20;;;9.18;100.00
68712;BME280;55690;51.566;19.198;2024-02-23T20:03:30;100330.29;;;9.07;100.00
68712;BME280;55690;51.566;19.198;2024-02-23T20:07:37;100325.09;;;9.04;100.00
68712;BME280;55690;51.566;19.198;2024-02-23T20:11:43;100323.03;;;9.07;100.00
68712;BME280;55690;51.566;19.198;2024-02-23T20:15:49;100328.03;;;9.00;100.00
68712;BME280;55690;51.566;19.198;2024-02-23T20:19:55;100326.08;;;9.03;100.00
68712;BME280;55690;51.566;19.198;2024-02-23T20:24:01;100324.87;;;9.07;100.00
68712;BME280;55690;51.566;19.198;2024-02-23T20:28:08;100314.04;;;9.07;100.00
68712;BME280;55690;51.566;19.198;2024-02-23T20:32:14;100306.18;;;8.91;100.00
68712;BME280;55690;51.566;19.198;2024-02-23T20:36:20;100301.77;;;8.77;100.00
68712;BME280;55690;51.566;19.198;2024-02-23T20:40:27;100304.59;;;8.76;100.00
68712;BME280;55690;51.566;19.198;2024-02-23T20:44:33;100319.44;;;8.70;100.00
68712;BME280;55690;51.566;19.198;2024-02-23T20:48:38;100312.88;;;8.61;100.00
68712;BME280;55690;51.566;19.198;2024-02-23T20:52:45;100300.00;;;8.65;100.00
68712;BME280;55690;51.566;19.198;2024-02-23T20:56:51;100293.06;;;8.61;100.00
68712;BME280;55690;51.566;19.198;2024-02-23T21:00:57;100298.53;;;8.72;100.00
68712;BME280;55690;51.566;19.198;2024-02-23T21:05:04;100302.86;;;8.75;100.00
68712;BME280;55690;51.566;19.198;2024-02-23T21:09:09;100302.80;;;8.63;100.00
68712;BME280;55690;51.566;19.198;2024-02-23T21:13:15;100299.74;;;8.68;100.00